Latest Weather Observations for Gunnedah Airport

IDN60801

Issued at 12:32 pm EDT Monday 20 February 2017 (issued every 30 minutes, with the page automatically refreshed every 10 minutes)

About weather observations | Map of weather stations | Latest weather observations for NSW | Other Formats
Station Details ID: 055202 Name: GUNNEDAH AIRPORT AWS Lat: -30.95 Lon: 150.25 Height: 262.57 m
Data from the previous 72 hours. | See also: Recent months at Gunnedah Airport
Date/Time
EDT
Temp
°C
App
Temp
°C
Dew
Point
°C
Rel
Hum
%
Delta-T
°C
Wind Press
QNH
hPa
Press
MSL
hPa
Rain since
9am
mm
Dir  Spd
km/h
Gust
km/h
Spd
kts
Gust
kts
20/12:30pm 25.5 20.1 2.2 22 11.4 W 20 30 11 16 1013.4 1011.9 0.0
20/12:00pm 24.8 19.4 2.3 23 10.9 W 20 28 11 15 1013.5 1012.0 0.0
20/11:30am 24.5 19.7 2.6 24 10.7 WSW 17 28 9 15 1013.7 1012.3 0.0
20/11:00am 23.5 18.8 1.2 23 10.5 WSW 15 22 8 12 1014.0 1012.6 0.0
20/10:30am 22.6 18.4 1.6 25 9.9 WSW 13 20 7 11 1014.0 1012.6 0.0
20/10:00am 22.4 19.5 4.9 32 8.8 ESE 9 17 5 9 1014.0 1012.6 0.0
20/09:30am 20.6 16.9 4.6 35 7.9 SE 13 26 7 14 1013.8 1012.4 0.0
20/09:00am 18.6 16.3 4.8 40 6.7 NNW 6 9 3 5 1013.6 1012.1 0.0
20/08:30am 16.3 14.1 7.8 57 4.3 N 9 9 5 5 1013.8 1012.4 0.0
20/08:00am 14.3 12.9 7.4 63 3.4 WNW 4 6 2 3 1013.4 1011.9 0.0
20/07:30am 11.1 10.5 7.6 79 1.7 CALM 0 0 0 0 1013.2 1011.7 0.0
20/07:00am 10.3 8.2 5.7 73 2.1 NNE 6 7 3 4 1013.0 1011.5 0.0
20/06:30am 10.6 8.2 5.2 69 2.5 N 7 11 4 6 1012.6 1011.1 0.0
20/06:00am 11.1 8.3 5.0 66 2.8 NNE 9 11 5 6 1012.4 1010.9 0.0
20/05:30am 11.8 9.7 3.8 58 3.6 N 4 7 2 4 1012.1 1010.6 0.0
20/05:00am 12.2 8.7 5.6 64 3.1 NNE 13 19 7 10 1011.6 1010.1 0.0
20/04:30am 11.8 10.6 6.3 69 2.6 W 2 7 1 4 1011.2 1009.7 0.0
20/04:00am 10.8 8.9 6.6 75 2.0 W 6 9 3 5 1011.0 1009.5 0.0
20/03:30am 11.5 10.6 6.2 70 2.5 CALM 0 0 0 0 1010.7 1009.2 0.0
20/03:00am 12.2 11.6 7.3 72 2.4 CALM 0 6 0 3 1010.6 1009.1 0.0
20/02:30am 12.4 9.5 8.3 76 2.1 ENE 13 17 7 9 1010.7 1009.2 0.0
20/02:00am 13.8 11.8 6.2 60 3.7 NNW 6 7 3 4 1010.6 1009.1 0.0
20/01:30am 14.5 12.2 5.8 56 4.2 NNW 7 9 4 5 1010.3 1008.7 0.0
20/01:00am 18.0 14.7 2.3 35 7.3 WNW 9 11 5 6 1010.0 1008.5 0.0
20/12:30am 18.8 14.8 2.6 34 7.6 W 13 20 7 11 1009.9 1008.4 0.0
20/12:00am 19.9 16.3 2.7 32 8.1 W 11 15 6 8 1009.8 1008.3 0.0
 
Date/Time
EDT
Temp
°C
App
Temp
°C
Dew
Point
°C
Rel
Hum
%
Delta-T
°C
Wind Press
QNH
hPa
Press
MSL
hPa
Rain since
9am
mm
Dir  Spd
km/h
Gust
km/h
Spd
kts
Gust
kts
19/11:30pm 19.5 16.7 5.2 39 7.1 WNW 9 13 5 7 1009.6 1008.1 0.0
19/11:00pm 20.2 17.7 6.5 41 7.0 NW 9 13 5 7 1009.6 1008.1 0.0
19/10:30pm 19.5 18.1 9.7 53 5.3 WNW 7 11 4 6 1009.3 1007.8 0.0
19/10:00pm 20.7 18.5 9.3 48 6.2 NW 11 15 6 8 1009.3 1007.8 0.0
19/09:30pm 21.5 18.2 9.7 47 6.4 NNW 17 20 9 11 1008.9 1007.4 0.0
19/09:00pm 21.7 19.2 9.6 46 6.6 NNW 13 17 7 9 1008.7 1007.2 0.0
19/08:30pm 22.4 19.7 10.5 47 6.6 N 15 20 8 11 1008.0 1006.5 0.0
19/08:00pm 22.3 21.7 12.3 53 5.7 WNW 7 9 4 5 1007.3 1005.8 0.0
19/07:30pm 22.9 21.8 13.1 54 5.7 N 11 15 6 8 1006.9 1005.3 0.0
19/07:00pm 24.1 22.3 10.7 43 7.6 N 11 17 6 9 1006.8 1005.2 0.0
19/06:30pm 25.4 22.5 8.0 33 9.4 NNW 13 17 7 9 1006.5 1004.9 0.0
19/06:00pm 26.3 22.7 8.3 32 9.8 WNW 17 20 9 11 1006.4 1004.8 0.0
19/05:30pm 27.2 21.5 6.6 27 11.0 W 26 35 14 19 1005.8 1004.3 0.0
19/05:00pm 28.4 24.0 7.6 27 11.4 W 20 32 11 17 1005.5 1004.0 0.0
19/04:30pm 28.5 25.2 9.7 31 10.6 W 17 24 9 13 1005.4 1003.9 0.0
19/04:00pm 28.4 26.9 10.6 33 10.2 WSW 9 13 5 7 1005.6 1004.1 0.0
19/03:30pm 25.9 24.9 13.4 46 7.4 NW 11 15 6 8 1006.4 1004.8 0.0
19/03:00pm 28.3 25.1 10.0 32 10.4 W 17 43 9 23 1006.7 1005.1 0.0
19/02:30pm 27.9 26.4 13.1 40 8.8 WSW 13 17 7 9 1007.0 1005.5 0.0
19/02:00pm 28.0 26.6 13.5 41 8.7 WNW 13 30 7 16 1007.3 1005.8 0.0
19/01:30pm 26.8 24.7 12.5 41 8.4 WNW 15 26 8 14 1007.7 1006.2 0.0
19/01:00pm 26.4 25.2 13.9 46 7.5 NW 13 19 7 10 1007.9 1006.4 0.0
19/12:30pm 26.9 25.7 14.0 45 7.8 WNW 13 24 7 13 1008.3 1006.8 0.0
19/12:00pm 26.5 24.6 12.9 43 8.0 W 15 26 8 14 1008.6 1007.1 0.0
19/11:30am 26.3 24.5 12.0 41 8.3 W 13 19 7 10 1008.8 1007.3 0.0
19/11:00am 24.9 24.1 11.8 44 7.5 NNW 7 11 4 6 1009.0 1007.5 0.0
19/10:30am 23.5 22.9 12.2 49 6.5 WSW 7 11 4 6 1009.0 1007.5 0.0
19/10:00am 23.3 23.3 14.3 57 5.4 WNW 7 11 4 6 1009.0 1007.5 0.0
19/09:30am 22.2 22.6 11.3 50 6.1 CALM 0 0 0 0 1008.9 1007.4 0.0
19/09:00am 21.4 21.9 11.7 54 5.5 CALM 0 0 0 0 1008.6 1007.1 15.2
19/08:30am 20.6 21.4 12.6 60 4.6 CALM 0 0 0 0 1008.4 1006.9 15.2
19/08:00am 19.2 20.0 13.8 71 3.1 S 2 6 1 3 1008.3 1006.8 15.2
19/07:30am 18.3 17.9 15.2 82 1.8 SSE 11 13 6 7 1008.1 1006.6 15.2
19/07:00am 17.9 17.9 15.3 85 1.5 ESE 9 11 5 6 1007.9 1006.4 15.2
19/06:30am 17.7 17.7 15.1 85 1.5 ESE 9 11 5 6 1007.5 1006.0 15.2
19/06:00am 18.0 17.9 16.0 88 1.2 E 11 13 6 7 1007.1 1005.6 15.2
19/05:30am 18.1 20.3 16.4 90 1.0 CALM 0 0 0 0 1006.8 1005.2 15.2
19/05:00am 18.1 20.0 15.7 86 1.4 CALM 0 4 0 2 1006.6 1005.0 15.2
19/04:30am 19.1 21.4 16.7 86 1.5 CALM 0 0 0 0 1006.4 1004.8 15.2
19/04:00am 19.9 21.9 16.9 83 1.8 N 2 7 1 4 1006.3 1004.7 15.2
19/03:30am 20.2 20.7 17.4 84 1.7 NE 11 13 6 7 1006.4 1004.8 15.2
19/03:00am 20.8 22.2 17.8 83 1.9 NNW 7 9 4 5 1006.4 1004.8 15.2
19/02:30am 20.9 22.3 17.9 83 1.9 N 7 13 4 7 1006.1 1004.6 15.2
19/02:00am 21.1 22.2 18.1 83 1.9 NE 9 11 5 6 1006.3 1004.7 15.2
19/01:30am 20.5 21.7 17.3 82 2.0 SE 7 9 4 5 1005.9 1004.4 15.2
19/01:00am 20.5 21.3 17.3 82 2.0 SE 9 11 5 6 1005.7 1004.2 15.2
19/12:30am 20.4 22.1 18.0 86 1.5 SW 6 7 3 4 1006.4 1004.8 15.2
19/12:00am 20.8 23.2 18.7 88 1.3 SE 4 7 2 4 1006.5 1004.9 15.2
 
Date/Time
EDT
Temp
°C
App
Temp
°C
Dew
Point
°C
Rel
Hum
%
Delta-T
°C
Wind Press
QNH
hPa
Press
MSL
hPa
Rain since
9am
mm
Dir  Spd
km/h
Gust
km/h
Spd
kts
Gust
kts
18/11:30pm 21.2 22.7 18.9 87 1.5 SE 9 11 5 6 1006.6 1005.0 15.2
18/11:00pm 21.1 22.6 19.0 88 1.3 SW 9 13 5 7 1006.6 1005.0 15.2
18/10:30pm 21.4 24.8 19.3 88 1.3 CALM 0 0 0 0 1006.5 1004.9 15.2
18/10:00pm 21.8 25.4 19.7 88 1.4 CALM 0 0 0 0 1006.4 1004.8 15.2
18/09:30pm 21.6 23.7 19.3 87 1.5 S 7 11 4 6 1006.0 1004.5 15.0
18/09:00pm 22.0 24.0 19.2 84 1.8 SSW 7 9 4 5 1005.4 1003.9 15.0
18/08:30pm 22.1 23.2 18.9 82 2.0 E 11 15 6 8 1004.6 1003.1 15.0
18/08:00pm 22.4 20.7 19.0 81 2.2 NNE 26 37 14 20 1005.1 1003.6 13.2
18/07:37pm 24.0 22.1 17.7 68 4.0 S 24 41 13 22 1005.3 1003.8 8.8
18/07:30pm 23.1 20.5 16.9 68 3.8 SE 26 39 14 21 1003.2 1001.6 8.8
18/07:11pm 24.7 23.2 17.7 65 4.4 SSE 22 48 12 26 1003.8 1002.3 8.8
18/07:09pm 24.2 23.1 17.4 65 4.3 SE 19 37 10 20 1003.8 1002.3 8.8
18/07:00pm 24.4 22.8 18.3 69 3.9 ENE 24 35 13 19 1001.7 1000.2 8.8
18/06:30pm 24.8 21.1 17.5 64 4.6 ENE 33 48 18 26 1002.3 1000.7 8.8
18/06:08pm 28.6 25.3 14.1 41 8.8 W 24 50 13 27 1002.3 1000.7 2.8
18/06:00pm 31.5 29.7 15.5 38 10.1 WNW 19 30 10 16 1001.7 1000.2 1.0
18/05:30pm 35.5 31.5 11.8 24 14.3 NNW 24 33 13 18 1001.2 999.7 0.2
18/05:00pm 38.0 33.7 11.9 21 15.9 NNW 26 37 14 20 1002.1 1000.6 0.2
18/04:30pm 38.5 34.5 13.0 22 15.8 NW 26 39 14 21 1003.0 1001.4 0.2
18/04:00pm 37.8 33.8 13.1 23 15.3 NW 26 37 14 20 1003.4 1001.8 0.2
18/03:30pm 37.1 33.2 15.5 27 13.8 NNW 30 44 16 24 1003.9 1002.4 0.2
18/03:18pm 36.9 32.6 15.4 28 13.7 NNW 32 48 17 26 1004.1 1002.6 0.2
18/03:00pm 36.7 33.2 14.6 26 13.9 NW 26 35 14 19 1004.5 1003.0 0.2
18/02:39pm 36.2 32.6 15.3 28 13.2 NNW 28 46 15 25 1004.9 1003.4 0.2
18/02:30pm 36.4 32.9 15.5 29 13.3 NW 28 43 15 23 1005.1 1003.6 0.2
18/02:08pm 36.1 32.5 15.2 28 13.2 NNW 28 46 15 25 1005.3 1003.8 0.2
18/02:00pm 36.1 32.7 15.8 30 13.0 NNW 28 44 15 24 1005.5 1004.0 0.2
18/01:30pm 35.9 31.9 15.1 29 13.1 NNW 30 43 16 23 1005.8 1004.3 0.2
18/01:00pm 35.8 32.3 15.5 29 12.9 NNW 28 39 15 21 1006.1 1004.6 0.2
18/12:51pm 35.0 30.5 14.8 29 12.7 NNW 32 50 17 27 1006.3 1004.7 0.2
18/12:30pm 35.4 31.4 15.2 30 12.8 NNW 30 41 16 22 1006.6 1005.0 0.2
18/12:00pm 34.9 30.2 14.2 28 12.9 NW 32 46 17 25 1007.1 1005.6 0.2
18/11:42am 35.0 30.1 13.8 28 13.1 NW 32 54 17 29 1007.3 1005.8 0.2
18/11:30am 35.3 32.6 14.6 29 13.0 NW 22 43 12 23 1007.4 1005.9 0.2
18/11:00am 33.2 32.8 16.1 35 10.9 NNW 13 26 7 14 1008.1 1006.6 0.2
18/10:30am 31.1 30.7 15.1 38 9.9 WNW 11 22 6 12 1008.8 1007.3 0.2
18/10:00am 30.3 29.9 16.3 42 8.8 NNW 13 20 7 11 1009.0 1007.5 0.2
18/09:30am 29.7 29.8 16.5 45 8.3 NW 11 19 6 10 1009.1 1007.6 0.0
18/09:00am 28.9 28.5 17.1 49 7.5 N 15 22 8 12 1009.1 1007.6 0.8
18/08:30am 27.6 28.2 17.7 54 6.3 NE 11 17 6 9 1009.1 1007.6 0.8
18/08:00am 26.0 25.8 17.6 60 5.3 NE 15 20 8 11 1008.9 1007.4 0.8
18/07:30am 24.4 24.2 17.6 66 4.3 NE 15 19 8 10 1008.9 1007.4 0.8
18/07:00am 23.4 22.3 17.4 69 3.8 NE 19 24 10 13 1008.8 1007.3 0.8
18/06:30am 23.0 22.0 17.5 71 3.4 NE 19 24 10 13 1008.7 1007.2 0.8
18/06:00am 23.0 22.4 17.5 71 3.5 NE 17 22 9 12 1008.6 1007.1 0.8
18/05:30am 21.8 22.4 16.7 73 3.1 ENE 9 13 5 7 1008.8 1007.3 0.8
18/05:00am 22.5 22.0 17.0 71 3.4 ENE 15 19 8 10 1008.9 1007.4 0.8
18/04:30am 22.0 21.7 16.5 71 3.4 E 13 15 7 8 1009.0 1007.5 0.8
18/04:00am 22.8 22.8 17.3 71 3.4 ENE 13 17 7 9 1009.0 1007.5 0.8
18/03:30am 21.4 21.3 15.9 71 3.3 SE 11 15 6 8 1009.3 1007.8 0.8
18/03:00am 21.3 21.3 16.3 73 3.1 SE 11 15 6 8 1009.2 1007.7 0.8
18/02:30am 20.9 20.6 16.5 76 2.7 SSE 13 17 7 9 1009.2 1007.7 0.8
18/02:00am 21.2 21.6 16.2 73 3.1 SE 9 15 5 8 1009.4 1007.9 0.8
18/01:30am 22.1 21.9 16.6 71 3.4 ESE 13 15 7 8 1009.5 1008.0 0.8
18/01:00am 22.1 21.9 16.6 71 3.4 ESE 13 17 7 9 1009.7 1008.2 0.8
18/12:30am 21.4 21.5 16.4 73 3.1 SSE 11 15 6 8 1009.6 1008.1 0.8
18/12:00am 21.9 22.0 16.4 71 3.4 SE 11 13 6 7 1009.6 1008.1 0.8
 
Date/Time
EDT
Temp
°C
App
Temp
°C
Dew
Point
°C
Rel
Hum
%
Delta-T
°C
Wind Press
QNH
hPa
Press
MSL
hPa
Rain since
9am
mm
Dir  Spd
km/h
Gust
km/h
Spd
kts
Gust
kts
17/11:30pm 22.3 23.0 17.0 72 3.3 ESE 9 13 5 7 1009.8 1008.3 0.8
17/11:00pm 22.9 23.2 17.8 73 3.2 ESE 13 20 7 11 1009.8 1008.3 0.8
17/10:30pm 22.8 23.0 18.6 77 2.7 ESE 15 19 8 10 1010.0 1008.5 0.8
17/10:00pm 23.1 22.8 19.1 78 2.6 E 19 24 10 13 1010.1 1008.6 0.8
17/09:30pm 23.6 23.6 18.9 75 3.0 ESE 17 24 9 13 1010.0 1008.5 0.8
17/09:00pm 23.5 23.5 19.0 76 2.9 ESE 17 24 9 13 1009.8 1008.3 0.8
17/08:30pm 23.7 25.0 18.4 72 3.4 N 9 17 5 9 1009.2 1007.7 0.8
17/08:00pm 24.2 23.7 19.1 73 3.3 N 20 32 11 17 1009.2 1007.7 0.8
17/07:30pm 25.2 25.5 19.6 71 3.6 N 17 20 9 11 1009.4 1007.9 0.8
17/07:00pm 24.4 25.9 20.5 79 2.6 SW 13 24 7 13 1008.6 1007.1 0.8
17/06:30pm 23.6 19.6 19.3 77 2.8 WSW 39 52 21 28 1009.3 1007.8 0.2
17/06:16pm 25.2 17.2 16.6 59 5.4 W 54 78 29 42 1009.1 1007.6 0.0
17/06:08pm 30.4 26.3 14.9 39 9.6 WNW 30 78 16 42 1009.0 1007.5 0.0
17/06:00pm 34.8 31.8 13.6 28 13.1 NW 22 33 12 18 1007.4 1005.9 0.0
17/05:30pm 35.1 31.6 13.3 27 13.4 NNW 24 35 13 19 1006.6 1005.0 0.0
17/05:00pm 35.9 32.4 13.4 26 13.9 NW 24 35 13 19 1006.3 1004.7 0.0
17/04:30pm 36.3 32.7 13.1 25 14.3 NNW 24 37 13 20 1006.7 1005.1 0.0
17/04:00pm 37.1 33.4 13.8 25 14.5 NNW 26 33 14 18 1007.2 1005.7 0.0
17/03:30pm 37.7 34.7 14.9 26 14.4 NNW 24 41 13 22 1008.0 1006.5 0.0
17/03:00pm 36.6 33.9 14.6 27 13.9 NW 22 35 12 19 1008.9 1007.4 0.0
17/02:30pm 36.0 32.9 14.6 27 13.4 NW 24 39 13 21 1009.7 1008.2 0.0
17/02:00pm 36.8 34.0 15.3 28 13.7 NW 24 37 13 20 1010.3 1008.7 0.0
17/01:30pm 36.0 35.2 15.2 29 13.2 NW 13 22 7 12 1010.8 1009.3 0.0
17/01:00pm 34.4 34.0 16.3 34 11.6 NW 13 22 7 12 1011.5 1010.0 0.0

Other Formats:

Comma delimited format used in spreadsheet applications
http://www.bom.gov.au/fwo/IDN60801/IDN60801.95740.axf

JavaScript Object Notation format (JSON) in row-major order
http://www.bom.gov.au/fwo/IDN60801/IDN60801.95740.json